Time;durP1;ratioP1;P1;durP2;ratioP2;P2;SDS_P1;SDS_P2;PMS_P1;PMS_P2;Temp;Humidity;BMP_temperature;BMP_pressure;BME280_temperature;BME280_humidity;BME280_pressure;Samples;Min_cycle;Max_cycle;Signal;HPM_P1;HPM_P2
2024/01/05 00:00:18;;;;;;;0.83;0.70;;;-2.70;99.90;-3.70;99087;;;;575277;246;24069;-78
2024/01/05 00:02:46;;;;;;;0.73;0.73;;;-2.70;99.90;-3.70;99091;;;;574657;246;24098;-80
2024/01/05 00:05:14;;;;;;;1.30;1.20;;;-2.70;99.90;-3.70;99103;;;;574947;246;24076;-81
2024/01/05 00:07:42;;;;;;;1.60;1.33;;;-2.70;99.90;-3.70;99094;;;;574953;246;24100;-81
2024/01/05 00:10:10;;;;;;;1.67;1.20;;;-2.60;99.90;-3.70;99111;;;;574850;246;24074;-79
2024/01/05 00:12:38;;;;;;;1.40;0.83;;;-2.60;99.90;-3.60;99103;;;;575287;246;25117;-80
2024/01/05 00:15:06;;;;;;;1.80;1.70;;;-2.60;99.90;-3.60;99115;;;;575176;246;25159;-77
2024/01/05 00:17:34;;;;;;;1.23;1.17;;;-2.60;99.90;-3.60;99123;;;;574204;246;24161;-77
2024/01/05 00:20:02;;;;;;;2.07;1.60;;;-2.60;99.90;-3.60;99121;;;;574917;246;24132;-79
2024/01/05 00:22:30;;;;;;;0.67;0.67;;;-2.60;99.90;-3.60;99123;;;;574765;246;24074;-79
2024/01/05 00:24:58;;;;;;;0.90;0.90;;;-2.60;99.90;-3.60;99123;;;;574427;246;24122;-79
2024/01/05 00:27:26;;;;;;;1.77;1.50;;;-2.50;99.90;-3.60;99134;;;;574298;246;24102;-79
2024/01/05 00:29:54;;;;;;;1.47;1.30;;;-2.60;99.90;-3.60;99119;;;;574682;246;24099;-79
2024/01/05 00:32:23;;;;;;;0.63;0.63;;;-2.60;99.90;-3.60;99121;;;;574911;246;24072;-78
2024/01/05 00:34:51;;;;;;;1.33;1.10;;;-2.60;99.90;-3.60;99139;;;;574746;246;24093;-79
2024/01/05 00:37:19;;;;;;;0.33;0.33;;;-2.60;99.90;-3.60;99133;;;;574954;246;24075;-78
2024/01/05 00:39:47;;;;;;;0.77;0.77;;;-2.60;99.90;-3.60;99140;;;;574248;246;24062;-79
2024/01/05 00:42:15;;;;;;;0.70;0.70;;;-2.60;99.90;-3.60;99141;;;;576689;246;24082;-79
2024/01/05 00:44:43;;;;;;;0.83;0.83;;;-2.60;99.90;-3.60;99141;;;;575747;246;24096;-78
2024/01/05 00:47:11;;;;;;;0.80;0.80;;;-2.60;99.90;-3.70;99151;;;;575476;246;24070;-78
2024/01/05 00:49:38;;;;;;;1.00;1.00;;;-2.60;99.90;-3.70;99147;;;;575137;246;24083;-79
2024/01/05 00:52:06;;;;;;;1.27;1.07;;;-2.60;99.90;-3.70;99154;;;;575340;246;24191;-78
2024/01/05 00:54:35;;;;;;;0.90;0.90;;;-2.70;99.90;-3.70;99154;;;;575544;242;24074;-77
2024/01/05 00:57:03;;;;;;;0.70;0.70;;;-2.60;99.90;-3.70;99156;;;;574852;246;24080;-79
2024/01/05 00:59:31;;;;;;;0.67;0.67;;;-2.70;99.90;-3.70;99158;;;;575073;246;25108;-80
2024/01/05 01:01:59;;;;;;;0.50;0.50;;;-2.60;99.90;-3.70;99153;;;;574700;246;24094;-78
2024/01/05 01:04:27;;;;;;;0.70;0.70;;;-2.60;99.90;-3.70;99157;;;;575067;246;24100;-78
2024/01/05 01:06:55;;;;;;;0.90;0.90;;;-2.60;99.90;-3.70;99152;;;;575124;246;25141;-78
2024/01/05 01:09:23;;;;;;;0.93;0.87;;;-2.60;99.90;-3.70;99142;;;;575070;246;24086;-78
2024/01/05 01:11:51;;;;;;;1.10;1.00;;;-2.60;99.90;-3.70;99146;;;;574982;246;24130;-79
2024/01/05 01:14:19;;;;;;;0.70;0.70;;;-2.70;99.90;-3.70;99155;;;;575483;246;24063;-78
2024/01/05 01:16:47;;;;;;;0.53;0.53;;;-2.70;99.90;-3.70;99158;;;;574784;246;24079;-78
2024/01/05 01:19:16;;;;;;;0.60;0.60;;;-2.70;99.90;-3.70;99158;;;;574375;246;24120;-78
2024/01/05 01:21:44;;;;;;;0.33;0.33;;;-2.70;99.90;-3.70;99155;;;;574200;246;24081;-78
2024/01/05 01:24:15;;;;;;;1.10;1.10;;;-2.70;99.90;-3.70;99166;;;;574905;246;24071;-78
2024/01/05 01:26:39;;;;;;;0.90;0.90;;;-2.70;99.90;-3.70;99171;;;;574126;246;24094;-79
2024/01/05 01:29:08;;;;;;;0.70;0.70;;;-2.70;99.90;-3.70;99165;;;;574925;246;24095;-77
2024/01/05 01:31:36;;;;;;;0.47;0.47;;;-2.70;99.90;-3.80;99154;;;;574248;246;24087;-79
2024/01/05 01:34:04;;;;;;;0.50;0.50;;;-2.70;99.90;-3.80;99153;;;;574218;246;24130;-79
2024/01/05 01:36:32;;;;;;;0.53;0.53;;;-2.80;99.90;-3.90;99161;;;;574807;246;24095;-79
2024/01/05 01:39:00;;;;;;;0.60;0.60;;;-2.90;99.90;-4.00;99153;;;;574810;246;24089;-78
2024/01/05 01:41:28;;;;;;;0.60;0.60;;;-3.00;99.90;-4.10;99162;;;;574427;246;24082;-78
2024/01/05 01:43:55;;;;;;;0.60;0.60;;;-3.10;99.90;-4.20;99158;;;;575141;246;24094;-78
2024/01/05 01:46:23;;;;;;;0.70;0.70;;;-3.20;99.90;-4.30;99168;;;;575180;246;24086;-78
2024/01/05 01:48:51;;;;;;;0.43;0.43;;;-3.30;99.90;-4.40;99175;;;;578969;244;24067;-77
2024/01/05 01:51:20;;;;;;;0.60;0.60;;;-3.40;99.90;-4.50;99172;;;;574587;246;24083;-78
2024/01/05 01:53:49;;;;;;;0.50;0.50;;;-3.50;99.90;-4.50;99184;;;;576400;246;24086;-78
2024/01/05 01:56:20;;;;;;;0.60;0.60;;;-3.50;99.90;-4.60;99182;;;;575293;246;24079;-78
2024/01/05 01:58:44;;;;;;;0.87;0.87;;;-3.60;99.90;-4.70;99187;;;;575188;246;24102;-79
2024/01/05 02:01:16;;;;;;;0.60;0.60;;;-3.60;99.90;-4.70;99188;;;;575437;246;24052;-78
2024/01/05 02:03:44;;;;;;;0.77;0.77;;;-3.70;99.90;-4.70;99190;;;;574058;246;24114;-77
2024/01/05 02:06:09;;;;;;;0.53;0.53;;;-3.70;99.90;-4.70;99195;;;;578774;246;24098;-78
2024/01/05 02:08:37;;;;;;;1.00;1.00;;;-3.70;99.90;-4.70;99200;;;;570300;246;35089;-79
2024/01/05 02:11:05;;;;;;;0.67;0.67;;;-3.70;99.90;-4.70;99205;;;;575200;246;24081;-80
2024/01/05 02:13:34;;;;;;;1.00;1.00;;;-3.60;99.90;-4.70;99213;;;;575486;246;24090;-79
2024/01/05 02:16:02;;;;;;;0.87;0.87;;;-3.60;99.90;-4.60;99213;;;;575479;246;24101;-79
2024/01/05 02:18:30;;;;;;;0.70;0.70;;;-3.60;99.90;-4.70;99208;;;;574966;246;24120;-79
2024/01/05 02:20:58;;;;;;;1.13;1.00;;;-3.60;99.90;-4.70;99208;;;;574480;246;24143;-79
2024/01/05 02:23:33;;;;;;;1.10;1.10;;;-3.60;99.90;-4.70;99205;;;;574532;246;24192;-79
2024/01/05 02:25:57;;;;;;;0.87;0.87;;;-3.70;99.90;-4.80;99207;;;;578434;242;24169;-77
2024/01/05 02:28:25;;;;;;;1.07;0.83;;;-3.80;99.90;-4.90;99202;;;;575315;246;24063;-79
2024/01/05 02:30:56;;;;;;;1.33;0.90;;;-3.80;99.90;-4.90;99210;;;;574696;246;24074;-81
2024/01/05 02:33:24;;;;;;;0.70;0.70;;;-3.90;99.90;-5.00;99222;;;;575150;246;24128;-78
2024/01/05 02:35:52;;;;;;;1.10;1.07;;;-4.00;99.90;-5.00;99213;;;;574680;246;24075;-78
2024/01/05 02:38:20;;;;;;;1.23;1.23;;;-4.00;99.90;-5.10;99222;;;;575211;246;24079;-80
2024/01/05 02:40:48;;;;;;;1.23;1.20;;;-4.00;99.90;-5.10;99221;;;;575176;246;24080;-78
2024/01/05 02:43:16;;;;;;;1.00;1.00;;;-4.00;99.90;-5.00;99214;;;;574822;246;24115;-79
2024/01/05 02:45:44;;;;;;;1.23;1.13;;;-4.00;99.90;-5.00;99212;;;;575182;246;24141;-78
2024/01/05 02:48:12;;;;;;;1.40;1.27;;;-3.90;99.90;-5.00;99218;;;;574356;246;24102;-78
2024/01/05 02:50:44;;;;;;;1.70;1.40;;;-3.90;99.90;-5.00;99221;;;;574214;246;24097;-79
2024/01/05 02:53:09;;;;;;;0.63;0.63;;;-4.00;99.90;-5.00;99221;;;;574508;246;24115;-79
2024/01/05 02:55:37;;;;;;;0.70;0.70;;;-4.00;99.90;-5.00;99220;;;;575174;246;24078;-78
2024/01/05 02:58:05;;;;;;;1.00;1.00;;;-4.00;99.90;-5.00;99219;;;;575160;246;24083;-79
2024/01/05 03:00:33;;;;;;;1.57;1.00;;;-4.00;99.90;-5.00;99228;;;;575239;242;24075;-79
2024/01/05 03:03:04;;;;;;;0.87;0.87;;;-4.00;99.90;-5.00;99212;;;;575204;246;24126;-79
2024/01/05 03:05:33;;;;;;;0.80;0.80;;;-4.00;99.90;-5.00;99219;;;;576133;246;24110;-79
2024/01/05 03:07:57;;;;;;;0.83;0.83;;;-3.90;99.90;-4.90;99228;;;;575721;245;24129;-79
2024/01/05 03:10:26;;;;;;;0.83;0.83;;;-3.80;99.90;-4.90;99228;;;;575999;246;24073;-79
2024/01/05 03:12:54;;;;;;;0.60;0.60;;;-3.70;99.90;-4.80;99227;;;;575489;246;24113;-80
2024/01/05 03:15:22;;;;;;;1.10;1.10;;;-3.80;99.90;-4.80;99232;;;;575469;246;24067;-80
2024/01/05 03:17:50;;;;;;;0.77;0.77;;;-3.70;99.90;-4.80;99231;;;;575358;246;24094;-78
2024/01/05 03:20:18;;;;;;;0.80;0.80;;;-3.70;99.90;-4.80;99231;;;;574742;246;24069;-78
2024/01/05 03:22:46;;;;;;;0.73;0.73;;;-3.60;99.90;-4.80;99230;;;;561354;255;24133;-78
2024/01/05 03:25:17;;;;;;;0.80;0.80;;;-3.70;99.90;-4.70;99230;;;;561705;256;24143;-77
2024/01/05 03:27:43;;;;;;;0.40;0.40;;;-3.60;99.90;-4.70;99227;;;;552549;256;24207;-78
2024/01/05 03:30:11;;;;;;;0.40;0.40;;;-3.60;99.90;-4.70;99232;;;;552992;256;25192;-78
2024/01/05 03:32:39;;;;;;;0.60;0.60;;;-3.60;99.90;-4.70;99241;;;;553115;256;24134;-78
2024/01/05 03:35:07;;;;;;;0.77;0.77;;;-3.60;99.90;-4.70;99253;;;;552539;256;24140;-79
2024/01/05 03:37:35;;;;;;;0.57;0.50;;;-3.60;99.90;-4.60;99252;;;;575546;246;24079;-78
2024/01/05 03:40:07;;;;;;;0.97;0.93;;;-3.50;99.90;-4.60;99255;;;;574559;246;24089;-77
2024/01/05 03:42:31;;;;;;;0.90;0.90;;;-3.50;99.90;-4.60;99252;;;;573822;246;24083;-78
2024/01/05 03:45:00;;;;;;;0.53;0.53;;;-3.40;99.90;-4.50;99252;;;;575225;246;24088;-78
2024/01/05 03:47:28;;;;;;;0.77;0.77;;;-3.40;99.90;-4.50;99254;;;;575134;246;24074;-78
2024/01/05 03:49:56;;;;;;;1.07;0.97;;;-3.40;99.90;-4.50;99258;;;;575158;246;24066;-78
2024/01/05 03:52:24;;;;;;;0.77;0.77;;;-3.40;99.90;-4.50;99244;;;;575243;246;24075;-79
2024/01/05 03:54:52;;;;;;;0.60;0.60;;;-3.40;99.90;-4.50;99243;;;;574840;246;24083;-79
2024/01/05 03:57:21;;;;;;;0.53;0.53;;;-3.40;99.90;-4.60;99241;;;;574963;246;24102;-77
2024/01/05 03:59:48;;;;;;;4.40;1.30;;;-3.50;99.90;-4.60;99246;;;;574822;246;24146;-78
2024/01/05 04:02:19;;;;;;;1.00;0.80;;;-3.50;99.90;-4.60;99250;;;;575199;246;24134;-77
2024/01/05 04:04:44;;;;;;;1.70;1.60;;;-3.50;99.90;-4.70;99248;;;;574178;246;24085;-81
2024/01/05 04:07:13;;;;;;;1.53;1.30;;;-3.60;99.90;-4.70;99242;;;;574728;246;24087;-79
2024/01/05 04:09:42;;;;;;;1.23;1.13;;;-3.70;99.90;-4.70;99243;;;;574913;246;24080;-79
2024/01/05 04:12:11;;;;;;;1.00;1.00;;;-3.70;99.90;-4.80;99242;;;;574784;246;24097;-79
2024/01/05 04:14:37;;;;;;;1.40;1.30;;;-3.70;99.90;-4.80;99245;;;;574748;246;24100;-81
2024/01/05 04:17:05;;;;;;;1.97;1.47;;;-3.80;99.90;-4.90;99256;;;;576732;246;24063;-80
2024/01/05 04:19:34;;;;;;;1.07;0.93;;;-3.80;99.90;-5.00;99258;;;;576340;242;24130;-79
2024/01/05 04:22:04;;;;;;;1.23;0.97;;;-3.90;99.90;-5.00;99261;;;;576169;246;24156;-79
2024/01/05 04:24:30;;;;;;;1.03;0.97;;;-3.90;99.90;-5.00;99265;;;;575933;246;24096;-80
2024/01/05 04:26:58;;;;;;;1.80;1.13;;;-3.90;99.90;-5.10;99264;;;;575427;246;24083;-80
2024/01/05 04:29:26;;;;;;;1.63;1.53;;;-4.00;99.90;-5.10;99260;;;;575987;246;24078;-80
2024/01/05 04:31:54;;;;;;;2.50;1.47;;;-4.00;99.90;-5.10;99256;;;;576138;246;24093;-81
2024/01/05 04:34:22;;;;;;;1.60;1.10;;;-4.00;99.90;-5.20;99265;;;;575293;246;24096;-81
2024/01/05 04:36:49;;;;;;;1.07;1.00;;;-4.10;99.90;-5.20;99263;;;;575471;246;24105;-82
2024/01/05 04:39:17;;;;;;;1.80;1.67;;;-4.10;99.90;-5.20;99259;;;;575515;246;24100;-80
2024/01/05 04:41:46;;;;;;;2.17;2.03;;;-4.20;99.90;-5.30;99263;;;;575343;246;24076;-79
2024/01/05 04:44:14;;;;;;;1.27;1.20;;;-4.20;99.90;-5.30;99266;;;;575683;246;24101;-81
2024/01/05 04:46:42;;;;;;;1.73;1.63;;;-4.20;99.90;-5.30;99278;;;;575216;246;24056;-80
2024/01/05 04:49:13;;;;;;;2.60;2.40;;;-4.20;99.90;-5.30;99275;;;;575604;246;24129;-80
2024/01/05 04:51:38;;;;;;;1.70;1.33;;;-4.20;99.90;-5.30;99279;;;;574300;246;24108;-80
2024/01/05 04:54:05;;;;;;;1.17;1.07;;;-4.30;99.90;-5.30;99276;;;;574857;246;24076;-80
2024/01/05 04:56:34;;;;;;;1.27;1.27;;;-4.30;99.90;-5.40;99282;;;;574787;246;24103;-81
2024/01/05 04:59:02;;;;;;;1.50;1.37;;;-4.30;99.90;-5.40;99285;;;;575284;246;24064;-79
2024/01/05 05:01:34;;;;;;;1.47;1.40;;;-4.30;99.90;-5.40;99283;;;;575341;242;24110;-79
2024/01/05 05:03:58;;;;;;;2.40;1.90;;;-4.30;99.90;-5.40;99288;;;;574421;246;24082;-80
2024/01/05 05:06:27;;;;;;;1.20;1.07;;;-4.40;99.90;-5.50;99290;;;;575417;246;24089;-80
2024/01/05 05:08:54;;;;;;;1.53;1.30;;;-4.40;99.90;-5.50;99288;;;;575443;246;24089;-80
2024/01/05 05:11:22;;;;;;;2.87;2.50;;;-4.40;99.90;-5.50;99292;;;;575339;246;24078;-81
2024/01/05 05:13:50;;;;;;;1.57;1.47;;;-4.40;99.90;-5.60;99304;;;;575110;246;24085;-82
2024/01/05 05:16:19;;;;;;;2.10;1.90;;;-4.50;99.90;-5.60;99308;;;;575081;246;24124;-80
2024/01/05 05:18:48;;;;;;;1.53;1.43;;;-4.50;99.90;-5.60;99319;;;;574387;246;25249;-81
2024/01/05 05:21:15;;;;;;;1.53;1.47;;;-4.50;99.90;-5.60;99318;;;;575112;246;24168;-81
2024/01/05 05:23:45;;;;;;;2.20;1.43;;;-4.50;99.90;-5.60;99325;;;;574906;246;24095;-82
2024/01/05 05:26:11;;;;;;;1.83;1.73;;;-4.50;99.90;-5.60;99327;;;;574614;246;24130;-82
2024/01/05 05:28:38;;;;;;;2.03;1.37;;;-4.50;99.90;-5.50;99327;;;;576727;246;24070;-81
2024/01/05 05:31:06;;;;;;;1.63;1.53;;;-4.40;99.90;-5.50;99336;;;;577679;242;24086;-81
2024/01/05 05:33:34;;;;;;;1.70;1.63;;;-4.40;99.90;-5.50;99335;;;;576949;246;24152;-81
2024/01/05 05:36:02;;;;;;;1.10;1.00;;;-4.40;99.90;-5.40;99334;;;;575201;246;24088;-81
2024/01/05 05:38:31;;;;;;;1.17;1.00;;;-4.30;99.90;-5.30;99346;;;;575649;246;24086;-82
2024/01/05 05:40:58;;;;;;;0.83;0.83;;;-4.20;99.90;-5.20;99349;;;;572252;244;24221;-75
2024/01/05 05:43:31;;;;;;;2.93;1.77;;;-4.00;99.90;-5.20;99352;;;;590251;241;24046;-77
2024/01/05 05:45:55;;;;;;;1.07;1.03;;;-4.10;99.90;-5.10;99352;;;;583389;242;24059;-74
2024/01/05 05:48:23;;;;;;;0.80;0.80;;;-3.90;99.90;-5.00;99345;;;;579484;246;24083;-74
2024/01/05 05:50:50;;;;;;;1.20;1.13;;;-3.80;99.90;-4.90;99352;;;;579513;246;24153;-77
2024/01/05 05:53:18;;;;;;;1.33;1.27;;;-3.70;99.90;-4.80;99364;;;;573542;246;24084;-77
2024/01/05 05:55:46;;;;;;;1.43;1.33;;;-3.70;99.90;-4.80;99353;;;;574097;246;24084;-78
2024/01/05 05:58:14;;;;;;;0.97;0.97;;;-3.60;99.90;-4.80;99365;;;;575053;246;24098;-84
2024/01/05 06:00:42;;;;;;;1.60;1.47;;;-3.60;99.90;-4.80;99359;;;;573660;246;24100;-80
2024/01/05 06:03:10;;;;;;;1.03;0.90;;;-3.60;99.90;-4.80;99366;;;;573047;247;24083;-79
2024/01/05 06:05:38;;;;;;;2.22;1.77;;;-3.70;99.90;-4.80;99369;;;;568450;247;35228;-84
2024/01/05 06:08:09;;;;;;;2.43;1.57;;;-3.70;99.90;-4.80;99369;;;;573387;247;24095;-85
2024/01/05 06:10:34;;;;;;;1.93;1.43;;;-3.70;99.90;-4.80;99377;;;;574157;247;24145;-84
2024/01/05 06:13:02;;;;;;;4.33;2.63;;;-3.70;99.90;-4.80;99378;;;;572993;247;24099;-84
2024/01/05 06:15:29;;;;;;;3.35;2.20;;;-3.70;99.90;-4.90;99389;;;;568774;247;35413;-84
2024/01/05 06:17:57;;;;;;;4.23;1.47;;;-3.70;99.90;-4.90;99389;;;;573321;247;24090;-82
2024/01/05 06:20:25;;;;;;;4.57;2.63;;;-3.80;99.90;-5.00;99393;;;;574342;247;25125;-78
2024/01/05 06:22:53;;;;;;;9.50;4.47;;;-3.80;99.90;-5.00;99386;;;;573839;247;24164;-83
2024/01/05 06:25:21;;;;;;;7.67;3.67;;;-3.90;99.90;-5.10;99390;;;;573231;247;24089;-78
2024/01/05 06:27:49;;;;;;;5.07;2.50;;;-4.00;99.90;-5.10;99398;;;;574661;246;24146;-78
2024/01/05 06:30:17;;;;;;;4.20;2.20;;;-4.00;99.90;-5.20;99405;;;;573534;247;24087;-77
2024/01/05 06:32:45;;;;;;;1.67;1.57;;;-4.10;99.90;-5.30;99399;;;;572919;247;24081;-84
2024/01/05 06:35:14;;;;;;;2.73;2.03;;;-4.20;99.90;-5.30;99402;;;;573608;247;24096;-82
2024/01/05 06:37:42;;;;;;;6.17;3.63;;;-4.20;99.90;-5.30;99406;;;;573537;247;24164;-84
2024/01/05 06:40:10;;;;;;;2.30;2.03;;;-4.30;99.90;-5.30;99417;;;;570226;246;35277;-84
2024/01/05 06:42:37;;;;;;;1.13;1.03;;;-4.20;99.90;-5.20;99413;;;;579644;246;24119;-76
2024/01/05 06:45:09;;;;;;;1.70;1.60;;;-4.10;99.90;-5.10;99430;;;;580364;246;24083;-77
2024/01/05 06:47:33;;;;;;;1.47;1.37;;;-4.10;99.90;-5.10;99428;;;;576199;246;24115;-76
2024/01/05 06:50:02;;;;;;;3.27;2.30;;;-4.00;99.90;-5.00;99419;;;;575370;246;24089;-73
2024/01/05 06:52:29;;;;;;;2.53;1.87;;;-3.90;99.90;-4.90;99425;;;;574913;246;24102;-72
2024/01/05 06:55:01;;;;;;;1.53;1.43;;;-3.80;99.90;-4.90;99422;;;;575539;246;24321;-77
2024/01/05 06:57:25;;;;;;;2.83;2.13;;;-3.80;99.90;-4.90;99429;;;;574569;246;24082;-76
2024/01/05 06:59:53;;;;;;;1.50;1.33;;;-3.70;99.90;-4.90;99422;;;;574232;246;24192;-74
2024/01/05 07:02:24;;;;;;;2.87;1.47;;;-3.70;99.90;-4.80;99426;;;;574265;246;24098;-76
2024/01/05 07:04:49;;;;;;;2.03;1.80;;;-3.70;99.90;-4.80;99428;;;;573961;246;24107;-73
2024/01/05 07:07:17;;;;;;;1.77;1.67;;;-3.70;99.90;-4.80;99432;;;;574140;246;24161;-75
2024/01/05 07:09:45;;;;;;;4.20;3.17;;;-3.70;99.90;-4.80;99432;;;;569009;246;35242;-74
2024/01/05 07:12:13;;;;;;;2.70;1.50;;;-3.70;99.90;-4.80;99435;;;;579426;246;24082;-75
2024/01/05 07:14:41;;;;;;;3.20;2.13;;;-3.60;99.90;-4.70;99430;;;;573114;247;24093;-74
2024/01/05 07:17:09;;;;;;;3.47;2.57;;;-3.60;99.90;-4.70;99438;;;;573746;247;27346;-75
2024/01/05 07:19:37;;;;;;;2.47;1.77;;;-3.50;99.90;-4.60;99443;;;;573827;247;24072;-75
2024/01/05 07:22:05;;;;;;;2.33;2.13;;;-3.50;99.90;-4.60;99443;;;;573290;247;24097;-74
2024/01/05 07:24:37;;;;;;;2.03;1.83;;;-3.50;99.90;-4.60;99444;;;;573770;247;24083;-74
2024/01/05 07:27:03;;;;;;;1.70;1.60;;;-3.50;99.90;-4.60;99449;;;;573871;246;24167;-75
2024/01/05 07:29:35;;;;;;;2.40;2.10;;;-3.50;99.90;-4.60;99449;;;;583368;245;24115;-76
2024/01/05 07:32:01;;;;;;;3.80;2.65;;;-3.50;99.90;-4.60;99443;;;;578121;246;35246;-76
2024/01/05 07:34:29;;;;;;;2.60;1.90;;;-3.40;99.90;-4.60;99456;;;;573900;247;24120;-74
2024/01/05 07:36:56;;;;;;;1.40;1.30;;;-3.50;99.90;-4.50;99456;;;;573813;247;24079;-75
2024/01/05 07:39:24;;;;;;;2.17;1.83;;;-3.40;99.90;-4.50;99448;;;;573880;247;24084;-75
2024/01/05 07:41:52;;;;;;;2.37;1.80;;;-3.30;99.90;-4.50;99452;;;;573338;247;24215;-76
2024/01/05 07:44:21;;;;;;;2.83;2.23;;;-3.40;99.90;-4.50;99460;;;;573444;247;24071;-75
2024/01/05 07:46:49;;;;;;;1.80;1.70;;;-3.40;99.90;-4.60;99462;;;;573337;247;24078;-74
2024/01/05 07:49:17;;;;;;;2.03;1.83;;;-3.40;99.90;-4.60;99464;;;;583471;246;24093;-74
2024/01/05 07:51:45;;;;;;;2.33;2.00;;;-3.50;99.90;-4.60;99458;;;;575136;246;24149;-74
2024/01/05 07:54:13;;;;;;;1.93;1.83;;;-3.50;99.90;-4.60;99452;;;;574542;246;24095;-75
2024/01/05 07:56:41;;;;;;;2.57;1.93;;;-3.50;99.90;-4.60;99466;;;;573894;246;24117;-75
2024/01/05 07:59:09;;;;;;;2.73;2.53;;;-3.60;99.90;-4.70;99468;;;;574241;246;24089;-75
2024/01/05 08:01:41;;;;;;;2.43;2.20;;;-3.60;99.90;-4.70;99470;;;;574359;246;24118;-75
2024/01/05 08:04:06;;;;;;;3.23;2.93;;;-3.60;99.90;-4.80;99470;;;;575150;246;24098;-76
2024/01/05 08:06:34;;;;;;;3.67;2.60;;;-3.70;99.90;-4.80;99484;;;;574466;246;24109;-76
2024/01/05 08:09:02;;;;;;;3.37;3.07;;;-3.70;99.90;-4.90;99492;;;;573754;246;24086;-75
2024/01/05 08:11:30;;;;;;;2.63;2.40;;;-3.80;99.90;-4.90;99502;;;;574191;246;24088;-76
2024/01/05 08:13:58;;;;;;;2.33;2.13;;;-3.80;99.90;-4.80;99500;;;;574148;246;24096;-75
2024/01/05 08:16:26;;;;;;;3.87;2.83;;;-3.80;99.90;-4.70;99500;;;;573659;246;24088;-78
2024/01/05 08:18:54;;;;;;;2.40;2.13;;;-3.60;99.90;-4.50;99515;;;;573219;246;24141;-77
2024/01/05 08:21:22;;;;;;;2.47;2.27;;;-3.40;99.90;-4.20;99518;;;;573252;246;24133;-80
2024/01/05 08:23:50;;;;;;;3.40;3.05;;;-3.10;99.90;-4.10;99506;;;;568670;246;35271;-77
2024/01/05 08:26:18;;;;;;;0.87;0.63;;;-2.90;99.90;-3.90;99513;;;;573543;247;24091;-80
2024/01/05 08:28:50;;;;;;;1.07;1.07;;;-2.70;99.90;-3.70;99504;;;;573515;247;24085;-80
2024/01/05 08:31:14;;;;;;;2.27;1.70;;;-2.60;99.90;-3.60;99516;;;;573331;247;24147;-78
2024/01/05 08:33:42;;;;;;;1.63;1.33;;;-2.40;99.90;-3.60;99516;;;;573867;247;25434;-78
2024/01/05 08:36:10;;;;;;;1.60;1.23;;;-2.40;99.90;-3.50;99518;;;;573426;247;24097;-74
2024/01/05 08:38:38;;;;;;;2.03;1.87;;;-2.30;99.90;-3.40;99530;;;;573334;247;24125;-78
2024/01/05 08:41:06;;;;;;;1.30;1.23;;;-2.20;99.90;-3.40;99538;;;;573611;247;24092;-83
2024/01/05 08:43:34;;;;;;;1.57;1.47;;;-2.20;99.90;-3.30;99537;;;;573629;247;24076;-77
2024/01/05 08:46:02;;;;;;;2.47;2.10;;;-2.10;99.90;-3.20;99530;;;;573322;247;24098;-81
2024/01/05 08:48:31;;;;;;;3.17;2.60;;;-1.90;99.90;-3.10;99534;;;;568807;247;46153;-78
2024/01/05 08:50:58;;;;;;;1.97;1.77;;;-1.90;99.90;-3.00;99542;;;;573423;247;24160;-76
2024/01/05 08:53:26;;;;;;;2.33;2.10;;;-1.80;99.90;-3.00;99550;;;;572959;247;24097;-79
2024/01/05 08:55:54;;;;;;;2.07;1.77;;;-1.80;99.90;-3.00;99550;;;;573452;247;24100;-75
2024/01/05 08:58:22;;;;;;;1.00;0.80;;;-1.80;99.90;-2.90;99557;;;;572874;247;24086;-74
2024/01/05 09:00:50;;;;;;;1.53;1.43;;;-1.80;99.90;-3.00;99563;;;;573309;247;25446;-80
2024/01/05 09:03:18;;;;;;;1.87;1.77;;;-1.80;99.90;-3.00;99552;;;;574717;246;24081;-78
2024/01/05 09:05:46;;;;;;;3.50;2.47;;;-1.80;99.90;-3.10;99553;;;;574800;246;24126;-81
2024/01/05 09:08:15;;;;;;;1.83;1.67;;;-2.00;99.90;-3.10;99568;;;;574640;246;24115;-80
2024/01/05 09:10:43;;;;;;;1.07;1.00;;;-2.00;99.90;-2.90;99580;;;;574501;246;24087;-81
2024/01/05 09:13:11;;;;;;;1.47;0.93;;;-1.80;99.90;-2.80;99574;;;;574334;246;24077;-81
2024/01/05 09:15:38;;;;;;;1.07;0.93;;;-1.70;99.90;-2.70;99576;;;;574337;246;24113;-82
2024/01/05 09:18:08;;;;;;;1.87;1.70;;;-1.50;99.90;-2.70;99585;;;;574386;246;25131;-77
2024/01/05 09:20:35;;;;;;;1.20;1.20;;;-1.50;99.90;-2.60;99583;;;;573777;246;24119;-78
2024/01/05 09:23:06;;;;;;;1.50;1.33;;;-1.50;99.90;-2.60;99586;;;;573709;246;24086;-77
2024/01/05 09:25:32;;;;;;;3.10;1.77;;;-1.40;99.90;-2.60;99594;;;;583063;246;24119;-79
2024/01/05 09:28:03;;;;;;;1.70;1.53;;;-1.40;99.90;-2.50;99598;;;;573173;246;24137;-76
2024/01/05 09:30:30;;;;;;;0.73;0.70;;;-1.40;99.90;-2.40;99602;;;;574048;246;24094;-79
2024/01/05 09:33:01;;;;;;;1.83;1.17;;;-1.30;99.90;-2.30;99597;;;;574753;246;24088;-78
2024/01/05 09:35:26;;;;;;;1.70;1.60;;;-1.20;99.90;-2.10;99597;;;;573365;246;24148;-78
2024/01/05 09:37:53;;;;;;;2.70;2.50;;;-1.00;99.90;-2.10;99591;;;;568976;247;35249;-77
2024/01/05 09:40:25;;;;;;;2.00;1.77;;;-0.90;99.90;-2.00;99601;;;;573333;247;24081;-76
2024/01/05 09:42:56;;;;;;;0.87;0.80;;;-0.90;99.90;-2.10;99591;;;;572874;247;24120;-77
2024/01/05 09:45:22;;;;;;;1.37;1.27;;;-0.90;99.90;-2.10;99591;;;;572900;247;24101;-76
2024/01/05 09:47:53;;;;;;;0.90;0.90;;;-1.00;99.90;-2.30;99591;;;;573327;247;24067;-77
2024/01/05 09:50:18;;;;;;;1.60;1.00;;;-1.20;99.90;-2.50;99577;;;;583304;246;24104;-76
2024/01/05 09:52:47;;;;;;;0.70;0.70;;;-1.50;99.90;-2.60;99575;;;;573415;247;24099;-77
2024/01/05 09:55:19;;;;;;;2.17;1.47;;;-1.60;99.90;-2.60;99572;;;;573547;247;24111;-77
2024/01/05 09:57:44;;;;;;;2.40;1.87;;;-1.60;99.90;-2.70;99574;;;;572309;247;24101;-78
2024/01/05 10:00:14;;;;;;;1.50;1.40;;;-1.60;99.90;-2.80;99577;;;;573545;247;24083;-78
2024/01/05 10:02:46;;;;;;;1.70;1.57;;;-1.70;99.90;-2.80;99580;;;;572895;247;24109;-77
2024/01/05 10:05:10;;;;;;;1.30;1.20;;;-1.80;99.90;-2.80;99580;;;;573914;247;24103;-76
2024/01/05 10:07:44;;;;;;;2.07;1.87;;;-1.70;99.90;-2.60;99591;;;;579255;247;25122;-75
2024/01/05 10:10:13;;;;;;;1.77;1.30;;;-1.40;99.90;-2.50;99582;;;;579244;247;24159;-77
2024/01/05 10:12:41;;;;;;;4.23;2.97;;;-1.40;99.90;-2.20;99589;;;;572998;244;24083;-78
2024/01/05 10:15:12;;;;;;;1.63;1.53;;;-1.20;99.90;-2.20;99582;;;;574899;246;24085;-79
2024/01/05 10:17:36;;;;;;;3.17;2.37;;;-1.10;99.90;-2.20;99577;;;;579270;246;24094;-77
2024/01/05 10:20:11;;;;;;;2.87;2.33;;;-1.10;99.90;-2.30;99586;;;;574237;246;24114;-77
2024/01/05 10:22:38;;;;;;;1.43;1.20;;;-1.20;99.90;-2.40;99585;;;;573762;246;24086;-77
2024/01/05 10:25:19;;;;;;;1.17;0.67;;;-1.40;99.90;-2.40;99601;;;;573856;246;24090;-78
2024/01/05 10:27:47;;;;;;;1.20;0.90;;;-1.20;99.90;-2.30;99597;;;;584104;246;25164;-82
2024/01/05 10:30:26;;;;;;;0.77;0.70;;;-1.20;99.90;-2.10;99588;;;;573942;246;24082;-76
2024/01/05 10:33:03;;;;;;;0.70;0.70;;;-1.00;99.90;-2.00;99594;;;;573305;246;24137;-81
2024/01/05 10:35:31;;;;;;;2.20;2.00;;;-0.80;99.90;-1.80;99583;;;;574543;246;24099;-78
2024/01/05 10:38:12;;;;;;;2.97;2.30;;;-0.60;99.90;-1.70;99595;;;;574008;246;24090;-82
2024/01/05 10:40:39;;;;;;;3.17;2.87;;;-0.50;99.90;-1.60;99605;;;;573778;246;24098;-79
2024/01/05 10:43:13;;;;;;;2.33;2.00;;;-0.40;99.90;-1.50;99594;;;;573471;246;24133;-81
2024/01/05 10:45:41;;;;;;;2.57;2.13;;;-0.40;99.90;-1.50;99600;;;;574245;246;24075;-83
2024/01/05 10:48:08;;;;;;;1.33;1.23;;;-0.40;99.90;-1.50;99595;;;;580308;246;24085;-78
2024/01/05 10:50:43;;;;;;;2.63;2.07;;;-0.30;99.90;-1.50;99612;;;;573967;247;24082;-78
2024/01/05 10:53:10;;;;;;;1.53;1.40;;;-0.30;99.90;-1.50;99607;;;;572951;247;24116;-81
2024/01/05 10:55:39;;;;;;;4.77;3.13;;;-0.40;99.90;-1.50;99617;;;;573783;247;24082;-81
2024/01/05 10:58:07;;;;;;;2.87;2.50;;;-0.40;99.90;-1.50;99613;;;;573008;247;24086;-76
2024/01/05 11:00:34;;;;;;;1.47;1.33;;;-0.40;99.90;-1.50;99629;;;;573588;247;24097;-80
2024/01/05 11:03:06;;;;;;;4.20;3.07;;;-0.40;99.90;-1.50;99626;;;;573782;247;24110;-76
2024/01/05 11:05:33;;;;;;;1.77;1.50;;;-0.40;99.90;-1.60;99623;;;;572304;247;24174;-76
2024/01/05 11:08:05;;;;;;;1.10;0.77;;;-0.50;99.90;-1.60;99629;;;;583913;245;24089;-80
2024/01/05 11:10:51;;;;;;;1.77;1.57;;;-0.50;99.90;-1.70;99630;;;;574987;247;24087;-78
2024/01/05 11:14:04;;;;;;;1.63;1.40;;;-0.60;99.90;-1.70;99636;;;;573493;247;24075;-78
2024/01/05 11:16:38;;;;;;;3.03;2.73;;;-0.70;99.90;-1.80;99630;;;;573045;247;24103;-83
2024/01/05 11:19:27;;;;;;;2.23;1.87;;;-0.70;99.90;-1.80;99634;;;;572667;247;24078;-82
2024/01/05 11:21:58;;;;;;;1.27;1.13;;;-0.80;99.90;-1.90;99639;;;;573711;247;24079;-83